Time;durP1;ratioP1;P1;durP2;ratioP2;P2;SDS_P1;SDS_P2;PMS_P1;PMS_P2;Temp;Humidity;BMP_temperature;BMP_pressure;BME280_temperature;BME280_humidity;BME280_pressure;Samples;Min_cycle;Max_cycle;Signal;HPM_P1;HPM_P2
2022/01/15 00:01:50;;;;;;;39.57;32.13;;;;;;;;;;5070333;28;20603;-79
2022/01/15 00:04:17;;;;;;;40.37;32.20;;;;;;;;;;5070954;28;20615;-79
2022/01/15 00:06:45;;;;;;;41.23;33.80;;;;;;;;;;5070205;28;20469;-78
2022/01/15 00:09:15;;;;;;;41.47;32.10;;;;;;;;;;5070285;28;20963;-80
2022/01/15 00:11:44;;;;;;;37.07;31.93;;;;;;;;;;5070773;28;21066;-78
2022/01/15 00:14:14;;;;;;;39.47;32.53;;;;;;;;;;5070047;28;20441;-78
2022/01/15 00:16:49;;;;;;;37.93;31.17;;;;;;;;;;5070346;28;20942;-80
2022/01/15 00:19:18;;;;;;;40.57;33.10;;;;;;;;;;5069958;28;20540;-79
2022/01/15 00:21:47;;;;;;;39.53;32.57;;;;;;;;;;5069837;28;20465;-78
2022/01/15 00:24:15;;;;;;;39.50;31.87;;;;;;;;;;5069366;28;20441;-78
2022/01/15 00:26:42;;;;;;;42.10;31.77;;;;;;;;;;5069180;28;20444;-78
2022/01/15 00:29:09;;;;;;;36.80;32.20;;;;;;;;;;5070090;28;20524;-78
2022/01/15 00:31:37;;;;;;;39.47;32.87;;;;;;;;;;5069537;28;20477;-78
2022/01/15 00:34:04;;;;;;;39.23;30.90;;;;;;;;;;5069062;28;20456;-78
2022/01/15 00:36:31;;;;;;;36.93;30.20;;;;;;;;;;5069616;28;20503;-77
2022/01/15 00:38:59;;;;;;;41.73;32.70;;;;;;;;;;5069451;28;20960;-78
2022/01/15 00:41:27;;;;;;;37.20;31.43;;;;;;;;;;5069351;28;20932;-78
2022/01/15 00:43:54;;;;;;;45.30;32.13;;;;;;;;;;5069342;28;20484;-78
2022/01/15 00:46:21;;;;;;;41.50;31.80;;;;;;;;;;5069494;28;20433;-79
2022/01/15 00:48:48;;;;;;;40.30;34.00;;;;;;;;;;5069323;28;20877;-79
2022/01/15 00:51:15;;;;;;;40.67;31.57;;;;;;;;;;5069618;28;20481;-79
2022/01/15 00:53:42;;;;;;;37.60;32.00;;;;;;;;;;5069372;28;20520;-79
2022/01/15 00:56:10;;;;;;;44.20;33.53;;;;;;;;;;5065982;28;20457;-78
2022/01/15 00:58:37;;;;;;;39.37;30.87;;;;;;;;;;5069222;28;21005;-79
2022/01/15 01:01:04;;;;;;;41.00;32.00;;;;;;;;;;5069233;28;20449;-78
2022/01/15 01:03:31;;;;;;;37.63;30.30;;;;;;;;;;5069173;28;20453;-79
2022/01/15 01:05:58;;;;;;;36.23;31.30;;;;;;;;;;5069396;28;20445;-78
2022/01/15 01:08:25;;;;;;;38.40;29.13;;;;;;;;;;5069415;28;20510;-78
2022/01/15 01:10:56;;;;;;;36.80;31.00;;;;;;;;;;5072630;28;20473;-78
2022/01/15 01:24:21;;;;;;;37.63;28.67;;;;;;;;;;5074001;28;20441;-80
2022/01/15 01:26:54;;;;;;;36.70;28.87;;;;;;;;;;5072731;28;20461;-79
2022/01/15 01:29:31;;;;;;;37.90;30.10;;;;;;;;;;5072853;28;20445;-78
2022/01/15 01:32:03;;;;;;;36.63;28.70;;;;;;;;;;5072738;28;20481;-78
2022/01/15 01:34:33;;;;;;;34.30;29.90;;;;;;;;;;5072624;28;20456;-79
2022/01/15 01:37:07;;;;;;;35.17;30.90;;;;;;;;;;5072189;28;20918;-77
2022/01/15 01:39:42;;;;;;;36.13;30.57;;;;;;;;;;5072365;28;20844;-77
2022/01/15 01:42:25;;;;;;;37.37;30.10;;;;;;;;;;5072791;28;20437;-78
2022/01/15 01:45:06;;;;;;;38.00;30.30;;;;;;;;;;5072327;28;20916;-77
2022/01/15 01:47:40;;;;;;;37.53;30.00;;;;;;;;;;5072252;28;20461;-78
2022/01/15 01:50:09;;;;;;;35.50;30.57;;;;;;;;;;5072569;28;20449;-78
2022/01/15 01:52:36;;;;;;;40.33;30.30;;;;;;;;;;5072045;28;20484;-78
2022/01/15 01:55:04;;;;;;;42.53;30.97;;;;;;;;;;5072334;28;20495;-77
2022/01/15 01:57:31;;;;;;;37.10;31.57;;;;;;;;;;5072462;28;20887;-78
2022/01/15 01:59:58;;;;;;;32.73;28.87;;;;;;;;;;5072645;28;20452;-77
2022/01/15 02:02:26;;;;;;;39.60;30.53;;;;;;;;;;5071377;28;20440;-78
2022/01/15 02:04:57;;;;;;;39.83;30.10;;;;;;;;;;5052194;28;20442;-77
2022/01/15 02:07:25;;;;;;;36.70;30.63;;;;;;;;;;5052316;28;20533;-80
2022/01/15 02:09:52;;;;;;;40.63;30.43;;;;;;;;;;5052565;28;20466;-80
2022/01/15 02:12:19;;;;;;;37.37;28.90;;;;;;;;;;5052693;28;20482;-78
2022/01/15 02:14:46;;;;;;;32.20;28.90;;;;;;;;;;5052435;28;21214;-77
2022/01/15 02:17:16;;;;;;;36.40;28.00;;;;;;;;;;5052277;28;20519;-78
2022/01/15 02:19:58;;;;;;;31.00;27.63;;;;;;;;;;5052355;28;20454;-76
2022/01/15 02:25:10;;;;;;;36.40;28.67;;;;;;;;;;5052322;28;20545;-77
2022/01/15 02:27:37;;;;;;;33.13;27.63;;;;;;;;;;5051979;28;20554;-77
2022/01/15 02:30:04;;;;;;;34.73;28.50;;;;;;;;;;5052119;28;20922;-76
2022/01/15 02:32:32;;;;;;;32.43;27.13;;;;;;;;;;5051429;28;20478;-79
2022/01/15 02:35:01;;;;;;;33.83;28.20;;;;;;;;;;5051147;28;20486;-78
2022/01/15 02:37:30;;;;;;;34.37;28.57;;;;;;;;;;5051651;28;20523;-78
2022/01/15 02:39:57;;;;;;;33.97;28.87;;;;;;;;;;5051460;28;20453;-78
2022/01/15 02:42:26;;;;;;;36.03;28.93;;;;;;;;;;5051365;28;20450;-78
2022/01/15 02:45:00;;;;;;;33.30;27.00;;;;;;;;;;5052232;28;20529;-77
2022/01/15 02:50:14;;;;;;;33.90;28.97;;;;;;;;;;5058002;28;20418;-78
2022/01/15 02:52:41;;;;;;;34.20;28.50;;;;;;;;;;5056420;28;20489;-78
2022/01/15 02:55:08;;;;;;;35.87;28.30;;;;;;;;;;5057545;28;20515;-77
2022/01/15 02:57:35;;;;;;;34.90;28.20;;;;;;;;;;5057910;28;20446;-77
2022/01/15 03:00:02;;;;;;;34.00;27.57;;;;;;;;;;5055506;28;20449;-78
2022/01/15 03:02:31;;;;;;;31.77;28.00;;;;;;;;;;5052210;28;21005;-76
2022/01/15 03:04:58;;;;;;;33.60;27.47;;;;;;;;;;5071928;28;20539;-77
2022/01/15 03:07:27;;;;;;;36.57;29.07;;;;;;;;;;5071542;28;20813;-78
2022/01/15 03:09:54;;;;;;;31.63;26.23;;;;;;;;;;5071111;28;21297;-78
2022/01/15 03:12:22;;;;;;;34.90;29.10;;;;;;;;;;5070860;28;20503;-76
2022/01/15 03:14:49;;;;;;;32.87;27.20;;;;;;;;;;5065950;28;20545;-78
2022/01/15 03:17:16;;;;;;;34.80;28.17;;;;;;;;;;5070588;28;20560;-78
2022/01/15 03:19:43;;;;;;;37.30;29.67;;;;;;;;;;5070750;28;20980;-78
2022/01/15 03:22:11;;;;;;;31.27;27.33;;;;;;;;;;5070956;28;20793;-78
2022/01/15 03:24:39;;;;;;;32.57;26.77;;;;;;;;;;5070487;28;20657;-78
2022/01/15 03:27:06;;;;;;;31.33;27.63;;;;;;;;;;5071487;28;20476;-77
2022/01/15 03:29:33;;;;;;;34.33;28.33;;;;;;;;;;5071815;28;20441;-78
2022/01/15 03:32:00;;;;;;;32.90;27.87;;;;;;;;;;5070524;28;20484;-76
2022/01/15 03:34:27;;;;;;;33.07;28.70;;;;;;;;;;5071060;28;20449;-77
2022/01/15 03:36:54;;;;;;;36.43;30.70;;;;;;;;;;5071501;28;20538;-77
2022/01/15 03:39:21;;;;;;;32.67;28.30;;;;;;;;;;5070923;28;20457;-76
2022/01/15 03:41:50;;;;;;;36.80;28.70;;;;;;;;;;5070807;28;20449;-77
2022/01/15 03:44:17;;;;;;;36.27;30.90;;;;;;;;;;5070443;28;20449;-78
2022/01/15 03:46:44;;;;;;;35.30;29.33;;;;;;;;;;5070204;28;20480;-76
2022/01/15 03:49:11;;;;;;;31.50;28.13;;;;;;;;;;5070380;28;20449;-77
2022/01/15 03:51:38;;;;;;;35.83;28.07;;;;;;;;;;5070249;28;20477;-76
2022/01/15 03:54:05;;;;;;;33.33;29.10;;;;;;;;;;5070632;28;20490;-76
2022/01/15 03:56:32;;;;;;;37.67;30.17;;;;;;;;;;5070730;28;20498;-78
2022/01/15 03:59:00;;;;;;;37.27;29.50;;;;;;;;;;5070099;28;20437;-76
2022/01/15 04:01:27;;;;;;;34.70;28.93;;;;;;;;;;5070776;28;20494;-78
2022/01/15 04:03:54;;;;;;;32.83;29.23;;;;;;;;;;5070389;28;20445;-78
2022/01/15 04:06:21;;;;;;;35.60;29.73;;;;;;;;;;5070200;28;20445;-78
2022/01/15 04:08:48;;;;;;;37.67;28.53;;;;;;;;;;5069784;28;20449;-77
2022/01/15 04:11:15;;;;;;;37.93;29.10;;;;;;;;;;5070657;28;20848;-77
2022/01/15 04:13:42;;;;;;;34.60;28.17;;;;;;;;;;5069988;28;20436;-77
2022/01/15 04:16:11;;;;;;;37.43;27.83;;;;;;;;;;5071072;28;20797;-78
2022/01/15 04:18:41;;;;;;;32.03;27.40;;;;;;;;;;5070070;28;20465;-77
2022/01/15 04:21:10;;;;;;;30.43;27.17;;;;;;;;;;5069992;28;20425;-77
2022/01/15 04:23:37;;;;;;;30.90;27.20;;;;;;;;;;5070016;28;21002;-77
2022/01/15 04:26:04;;;;;;;30.33;27.10;;;;;;;;;;5064661;28;20444;-76
2022/01/15 04:28:34;;;;;;;31.17;27.27;;;;;;;;;;5069082;28;20998;-76
2022/01/15 04:31:05;;;;;;;32.20;27.73;;;;;;;;;;5049754;28;20473;-77
2022/01/15 04:33:34;;;;;;;31.67;26.70;;;;;;;;;;5049152;28;20553;-76
2022/01/15 04:36:01;;;;;;;32.13;26.30;;;;;;;;;;5050456;28;20529;-76
2022/01/15 04:38:32;;;;;;;34.70;27.87;;;;;;;;;;5049833;28;20458;-76
2022/01/15 04:40:59;;;;;;;31.50;27.33;;;;;;;;;;5049414;28;20446;-77
2022/01/15 04:43:26;;;;;;;31.10;26.23;;;;;;;;;;5050493;28;20487;-77
2022/01/15 04:45:53;;;;;;;29.20;24.70;;;;;;;;;;5053373;28;20503;-76
2022/01/15 04:48:20;;;;;;;34.53;27.23;;;;;;;;;;5053539;28;20501;-77
2022/01/15 04:50:48;;;;;;;31.27;26.70;;;;;;;;;;5053759;28;20492;-76
2022/01/15 04:53:15;;;;;;;31.83;25.80;;;;;;;;;;5052959;28;20572;-76
2022/01/15 04:55:42;;;;;;;32.23;26.37;;;;;;;;;;5053377;28;20434;-76
2022/01/15 04:58:10;;;;;;;30.30;26.00;;;;;;;;;;5053360;28;20893;-77
2022/01/15 05:00:37;;;;;;;29.50;25.70;;;;;;;;;;5053196;28;20450;-78
2022/01/15 05:03:05;;;;;;;30.97;26.50;;;;;;;;;;5059069;28;20966;-76
2022/01/15 05:05:32;;;;;;;26.73;23.80;;;;;;;;;;5073054;28;20494;-76
2022/01/15 05:08:02;;;;;;;29.43;24.73;;;;;;;;;;5072914;28;20519;-78
2022/01/15 05:10:29;;;;;;;32.27;25.23;;;;;;;;;;5072984;28;20460;-77
2022/01/15 05:12:59;;;;;;;28.13;25.03;;;;;;;;;;5072853;28;20481;-77
2022/01/15 05:15:26;;;;;;;32.60;25.67;;;;;;;;;;5072895;28;20966;-77
2022/01/15 05:17:53;;;;;;;29.90;24.80;;;;;;;;;;5072762;28;20488;-78
2022/01/15 05:20:22;;;;;;;28.87;24.77;;;;;;;;;;5072660;28;20797;-78
2022/01/15 05:22:49;;;;;;;28.27;23.37;;;;;;;;;;5072424;28;20860;-78
2022/01/15 05:25:18;;;;;;;26.50;23.47;;;;;;;;;;5072879;28;20445;-76
2022/01/15 05:27:45;;;;;;;29.33;24.97;;;;;;;;;;5072854;28;20900;-76
2022/01/15 05:30:13;;;;;;;27.90;24.37;;;;;;;;;;5073352;28;20494;-76
2022/01/15 05:32:40;;;;;;;28.23;23.57;;;;;;;;;;5072412;28;20947;-77
2022/01/15 05:35:08;;;;;;;28.93;23.27;;;;;;;;;;5072701;28;20502;-76
2022/01/15 05:37:35;;;;;;;26.33;23.37;;;;;;;;;;5072604;28;20813;-77
2022/01/15 05:40:02;;;;;;;31.60;24.67;;;;;;;;;;5072473;28;20449;-77
2022/01/15 05:42:31;;;;;;;25.57;22.80;;;;;;;;;;5070553;28;20859;-76
2022/01/15 05:44:58;;;;;;;31.67;24.50;;;;;;;;;;5064548;28;20445;-77
2022/01/15 05:47:25;;;;;;;29.13;23.90;;;;;;;;;;5071921;28;20461;-78
2022/01/15 05:49:52;;;;;;;28.07;24.80;;;;;;;;;;5073010;28;20445;-76
2022/01/15 05:52:19;;;;;;;32.77;23.90;;;;;;;;;;5070100;28;20480;-75
2022/01/15 05:54:46;;;;;;;29.70;25.00;;;;;;;;;;5071166;28;20437;-77
2022/01/15 05:57:13;;;;;;;26.30;23.17;;;;;;;;;;5072024;28;20534;-76
2022/01/15 05:59:41;;;;;;;26.27;23.37;;;;;;;;;;5076097;28;20452;-77
2022/01/15 06:02:08;;;;;;;31.80;24.97;;;;;;;;;;5086316;28;20437;-77
2022/01/15 06:04:35;;;;;;;30.07;25.60;;;;;;;;;;5065077;28;20438;-79
2022/01/15 06:07:02;;;;;;;30.83;25.67;;;;;;;;;;5064618;28;20461;-78
2022/01/15 06:09:29;;;;;;;31.50;27.33;;;;;;;;;;5063834;28;20518;-77
2022/01/15 06:11:56;;;;;;;29.53;24.93;;;;;;;;;;5057130;28;20987;-77
2022/01/15 06:14:23;;;;;;;32.00;25.53;;;;;;;;;;5051899;28;20454;-77
2022/01/15 06:16:52;;;;;;;31.40;26.27;;;;;;;;;;5052215;28;20941;-77
2022/01/15 06:19:19;;;;;;;34.83;26.37;;;;;;;;;;5052040;28;20477;-78
2022/01/15 06:21:46;;;;;;;32.43;25.70;;;;;;;;;;5051744;28;20446;-77
2022/01/15 06:24:13;;;;;;;29.43;24.63;;;;;;;;;;5051710;28;20957;-78
2022/01/15 06:26:40;;;;;;;28.50;25.20;;;;;;;;;;5051399;28;20442;-76
2022/01/15 06:29:07;;;;;;;33.10;25.50;;;;;;;;;;5051989;28;20438;-77
2022/01/15 06:31:34;;;;;;;29.83;26.17;;;;;;;;;;5052184;28;20852;-76
2022/01/15 06:34:02;;;;;;;31.37;25.83;;;;;;;;;;5052200;28;20486;-75
2022/01/15 06:36:29;;;;;;;29.97;24.37;;;;;;;;;;5051962;28;20991;-77
2022/01/15 06:38:56;;;;;;;30.90;25.50;;;;;;;;;;5052148;28;20457;-77
2022/01/15 06:41:23;;;;;;;31.10;25.57;;;;;;;;;;5051877;28;20439;-76
2022/01/15 06:43:50;;;;;;;32.10;26.20;;;;;;;;;;5050979;28;20945;-76
2022/01/15 06:46:17;;;;;;;30.73;23.97;;;;;;;;;;5051233;28;20457;-76
2022/01/15 06:48:44;;;;;;;28.63;23.57;;;;;;;;;;5051437;28;20462;-77
2022/01/15 06:51:13;;;;;;;29.63;24.77;;;;;;;;;;5051466;28;20933;-77
2022/01/15 06:53:40;;;;;;;31.53;25.33;;;;;;;;;;5051445;28;20476;-77
2022/01/15 06:56:07;;;;;;;32.60;25.60;;;;;;;;;;5051429;28;20430;-76
2022/01/15 06:58:34;;;;;;;32.07;23.80;;;;;;;;;;5051368;28;20465;-77
2022/01/15 07:01:01;;;;;;;28.10;23.07;;;;;;;;;;5052050;28;20852;-76
2022/01/15 07:03:28;;;;;;;28.87;24.93;;;;;;;;;;5051280;28;20454;-77
2022/01/15 07:05:55;;;;;;;25.93;23.27;;;;;;;;;;5051277;28;20790;-78
2022/01/15 07:08:24;;;;;;;28.83;25.73;;;;;;;;;;5051221;28;20528;-77
2022/01/15 07:10:51;;;;;;;27.60;23.33;;;;;;;;;;5051071;28;20453;-77
2022/01/15 07:13:19;;;;;;;29.90;24.00;;;;;;;;;;5051301;28;20485;-76
2022/01/15 07:15:47;;;;;;;59.77;43.97;;;;;;;;;;5051615;28;20874;-77
2022/01/15 07:18:14;;;;;;;45.90;38.07;;;;;;;;;;5051596;28;20840;-77
2022/01/15 07:20:41;;;;;;;39.63;31.23;;;;;;;;;;5051704;28;20442;-78
2022/01/15 07:23:08;;;;;;;29.23;26.03;;;;;;;;;;5051669;28;20442;-78
2022/01/15 07:25:36;;;;;;;30.60;23.90;;;;;;;;;;5050867;28;20450;-76
2022/01/15 07:28:03;;;;;;;27.23;24.23;;;;;;;;;;5050747;28;20481;-77
2022/01/15 07:30:30;;;;;;;25.80;23.03;;;;;;;;;;5051136;28;20508;-76
2022/01/15 07:32:57;;;;;;;28.60;25.03;;;;;;;;;;5051449;28;20474;-78
2022/01/15 07:35:24;;;;;;;28.27;23.80;;;;;;;;;;5051624;28;20492;-76
2022/01/15 07:37:51;;;;;;;25.63;22.90;;;;;;;;;;5050619;28;20557;-77
2022/01/15 07:40:18;;;;;;;27.77;22.80;;;;;;;;;;5050977;28;20442;-79
2022/01/15 07:42:47;;;;;;;29.93;24.50;;;;;;;;;;5050747;28;20866;-77
2022/01/15 07:45:15;;;;;;;29.70;24.30;;;;;;;;;;5050507;28;20486;-77
2022/01/15 07:47:43;;;;;;;28.00;24.70;;;;;;;;;;5051836;28;20227;-77
2022/01/15 07:50:11;;;;;;;31.57;26.43;;;;;;;;;;5051015;28;20454;-77
2022/01/15 07:52:38;;;;;;;31.20;24.63;;;;;;;;;;5050688;28;20450;-79
2022/01/15 07:55:06;;;;;;;30.30;25.67;;;;;;;;;;5050742;28;20450;-79
2022/01/15 07:57:33;;;;;;;29.37;26.20;;;;;;;;;;5050776;28;20531;-77
2022/01/15 08:00:01;;;;;;;29.70;26.50;;;;;;;;;;5051159;28;20867;-78
2022/01/15 08:02:28;;;;;;;33.20;27.80;;;;;;;;;;5051983;28;20492;-78
2022/01/15 08:04:55;;;;;;;36.20;27.93;;;;;;;;;;5070109;28;20445;-78
2022/01/15 08:07:22;;;;;;;33.27;27.87;;;;;;;;;;5069981;28;20511;-79
2022/01/15 08:09:49;;;;;;;30.77;27.10;;;;;;;;;;5069902;28;20444;-78
2022/01/15 08:12:19;;;;;;;31.67;27.70;;;;;;;;;;5070127;28;21052;-79
2022/01/15 08:14:46;;;;;;;32.70;28.10;;;;;;;;;;5072935;28;21016;-77
2022/01/15 08:17:15;;;;;;;33.13;26.00;;;;;;;;;;5069993;28;20450;-79
2022/01/15 08:19:42;;;;;;;32.43;27.90;;;;;;;;;;5069305;28;20510;-80
2022/01/15 08:22:10;;;;;;;32.50;27.60;;;;;;;;;;5069848;28;20450;-78
2022/01/15 08:24:37;;;;;;;30.60;26.17;;;;;;;;;;5069900;28;20445;-78
2022/01/15 08:27:04;;;;;;;30.20;25.73;;;;;;;;;;5070210;28;20468;-77
2022/01/15 08:29:31;;;;;;;31.10;27.73;;;;;;;;;;5069850;28;20448;-78
2022/01/15 08:31:59;;;;;;;30.30;25.17;;;;;;;;;;5069516;28;20448;-77
2022/01/15 08:34:27;;;;;;;31.00;26.10;;;;;;;;;;5069464;28;20477;-78
2022/01/15 08:36:54;;;;;;;33.40;27.30;;;;;;;;;;5070041;28;20538;-78
2022/01/15 08:39:21;;;;;;;34.47;25.80;;;;;;;;;;5070238;28;20515;-78
2022/01/15 08:41:49;;;;;;;29.27;25.57;;;;;;;;;;5070518;28;20449;-77
2022/01/15 08:44:16;;;;;;;28.13;25.13;;;;;;;;;;5069532;28;20532;-79
2022/01/15 08:46:43;;;;;;;32.70;26.77;;;;;;;;;;5069642;28;20449;-77
2022/01/15 08:49:10;;;;;;;28.97;25.60;;;;;;;;;;5070327;28;20457;-77
2022/01/15 08:51:38;;;;;;;26.00;23.37;;;;;;;;;;5071382;28;20840;-78
2022/01/15 08:54:05;;;;;;;33.93;27.90;;;;;;;;;;5070022;28;20503;-76
2022/01/15 08:56:32;;;;;;;61.43;49.33;;;;;;;;;;5070932;28;20437;-78
2022/01/15 08:58:59;;;;;;;63.50;46.83;;;;;;;;;;5070257;28;20826;-77
2022/01/15 09:01:26;;;;;;;31.70;26.00;;;;;;;;;;5069296;28;20431;-76
2022/01/15 09:03:55;;;;;;;31.97;26.30;;;;;;;;;;5055954;28;20446;-78
2022/01/15 09:06:22;;;;;;;28.73;24.73;;;;;;;;;;5064264;28;20793;-77
2022/01/15 09:08:51;;;;;;;25.10;22.50;;;;;;;;;;5063240;28;20477;-77
2022/01/15 09:11:18;;;;;;;28.53;25.50;;;;;;;;;;5068773;28;20491;-75
2022/01/15 09:13:45;;;;;;;29.77;26.60;;;;;;;;;;5068213;28;20522;-76
2022/01/15 09:16:12;;;;;;;28.43;25.53;;;;;;;;;;5068941;28;20449;-77
2022/01/15 09:18:39;;;;;;;28.83;25.83;;;;;;;;;;5069121;28;20546;-77
2022/01/15 09:21:06;;;;;;;26.83;24.13;;;;;;;;;;5069467;28;20996;-77
2022/01/15 09:23:33;;;;;;;27.67;24.87;;;;;;;;;;5069612;28;20475;-76
2022/01/15 09:26:02;;;;;;;27.87;24.43;;;;;;;;;;5068711;28;20956;-76
2022/01/15 09:31:14;;;;;;;27.97;25.07;;;;;;;;;;5071114;28;20428;-76
2022/01/15 09:33:41;;;;;;;28.37;25.33;;;;;;;;;;5072132;28;20580;-77
2022/01/15 09:36:08;;;;;;;27.23;24.60;;;;;;;;;;5072641;28;20518;-76
2022/01/15 09:38:35;;;;;;;26.93;24.13;;;;;;;;;;5072094;28;20959;-78
2022/01/15 09:41:04;;;;;;;30.03;24.27;;;;;;;;;;5072447;28;20542;-77
2022/01/15 09:43:31;;;;;;;27.63;24.57;;;;;;;;;;5072205;28;20445;-77
2022/01/15 09:45:59;;;;;;;26.37;23.77;;;;;;;;;;5072561;28;20526;-78
2022/01/15 09:48:27;;;;;;;27.10;24.23;;;;;;;;;;5069309;28;20474;-77
2022/01/15 09:50:54;;;;;;;26.37;23.80;;;;;;;;;;5072218;28;20520;-76
2022/01/15 09:53:21;;;;;;;27.77;24.87;;;;;;;;;;5071542;28;20603;-76
2022/01/15 09:55:48;;;;;;;26.90;24.07;;;;;;;;;;5072455;28;20444;-76
2022/01/15 09:58:17;;;;;;;27.13;24.53;;;;;;;;;;5072150;28;20493;-78
2022/01/15 10:00:44;;;;;;;26.97;24.17;;;;;;;;;;5071907;28;20495;-77
2022/01/15 10:03:11;;;;;;;27.10;24.27;;;;;;;;;;5071772;28;20441;-76
2022/01/15 10:05:38;;;;;;;28.43;25.33;;;;;;;;;;5071897;28;20499;-77
2022/01/15 10:08:08;;;;;;;29.67;26.57;;;;;;;;;;5063003;28;20492;-75
2022/01/15 10:10:35;;;;;;;26.10;23.43;;;;;;;;;;5053674;28;20473;-74
2022/01/15 10:13:13;;;;;;;31.07;26.23;;;;;;;;;;5054098;28;20446;-77
2022/01/15 10:15:43;;;;;;;28.60;25.63;;;;;;;;;;5056895;28;20470;-76
2022/01/15 10:18:24;;;;;;;29.40;26.23;;;;;;;;;;5071592;28;20461;-76
2022/01/15 10:20:51;;;;;;;28.43;25.57;;;;;;;;;;5073684;28;20447;-76
2022/01/15 10:23:19;;;;;;;27.67;24.87;;;;;;;;;;5073101;28;20437;-76
2022/01/15 10:25:46;;;;;;;29.00;26.20;;;;;;;;;;5073158;28;20441;-74
2022/01/15 10:28:13;;;;;;;27.57;24.53;;;;;;;;;;5072891;28;20457;-75
2022/01/15 10:30:46;;;;;;;29.77;26.57;;;;;;;;;;5073254;28;20662;-75
2022/01/15 10:33:13;;;;;;;28.00;25.17;;;;;;;;;;5072300;28;20445;-76
2022/01/15 10:35:41;;;;;;;27.93;25.23;;;;;;;;;;5069768;28;20450;-77
2022/01/15 10:38:09;;;;;;;27.60;24.80;;;;;;;;;;5070624;28;20507;-77
2022/01/15 10:40:39;;;;;;;26.30;23.60;;;;;;;;;;5067439;28;20441;-76
2022/01/15 10:43:06;;;;;;;27.73;25.03;;;;;;;;;;5053129;28;20446;-76
2022/01/15 10:45:35;;;;;;;29.10;26.30;;;;;;;;;;5053214;28;20437;-76
2022/01/15 10:48:08;;;;;;;28.13;25.23;;;;;;;;;;5053076;28;20458;-75
2022/01/15 10:50:36;;;;;;;26.80;24.00;;;;;;;;;;5053189;28;20449;-76
2022/01/15 10:53:07;;;;;;;27.00;24.17;;;;;;;;;;5057540;28;20454;-78
2022/01/15 10:55:35;;;;;;;25.60;23.10;;;;;;;;;;5064309;28;20989;-75
2022/01/15 10:58:03;;;;;;;28.10;25.20;;;;;;;;;;5063551;28;20496;-76
2022/01/15 11:00:31;;;;;;;28.27;25.47;;;;;;;;;;5069564;28;20450;-75
2022/01/15 11:03:00;;;;;;;28.10;25.10;;;;;;;;;;5072693;28;20445;-76
2022/01/15 11:05:30;;;;;;;28.63;25.77;;;;;;;;;;5072829;28;20453;-76
2022/01/15 11:08:04;;;;;;;27.33;24.50;;;;;;;;;;5072652;28;20828;-76
2022/01/15 11:10:37;;;;;;;32.20;26.80;;;;;;;;;;5072572;28;20449;-75
2022/01/15 11:13:07;;;;;;;29.20;26.10;;;;;;;;;;5072144;28;20921;-76
2022/01/15 11:15:34;;;;;;;26.13;23.37;;;;;;;;;;5072379;28;20815;-77
2022/01/15 11:18:02;;;;;;;26.90;24.30;;;;;;;;;;5072136;28;20487;-77
2022/01/15 11:20:32;;;;;;;26.23;23.70;;;;;;;;;;5072239;28;20866;-77
2022/01/15 11:22:59;;;;;;;25.60;23.00;;;;;;;;;;5072104;28;20497;-77
2022/01/15 11:25:27;;;;;;;25.77;22.97;;;;;;;;;;5072402;28;20534;-76
2022/01/15 11:27:54;;;;;;;26.83;24.20;;;;;;;;;;5072455;28;20461;-76
2022/01/15 11:30:21;;;;;;;26.33;23.57;;;;;;;;;;5072304;28;20445;-77
2022/01/15 11:32:49;;;;;;;23.13;21.03;;;;;;;;;;5071745;28;20443;-76
2022/01/15 11:35:16;;;;;;;26.70;23.90;;;;;;;;;;5072177;28;20476;-78
2022/01/15 11:37:47;;;;;;;24.90;22.40;;;;;;;;;;5060726;28;20472;-77
2022/01/15 11:40:33;;;;;;;24.90;22.50;;;;;;;;;;5062518;28;20485;-76
2022/01/15 11:43:22;;;;;;;25.00;22.27;;;;;;;;;;5071984;28;20494;-78
2022/01/15 11:45:49;;;;;;;28.50;22.77;;;;;;;;;;5071695;28;20494;-77
2022/01/15 11:48:22;;;;;;;24.90;22.37;;;;;;;;;;5072090;28;20461;-76
2022/01/15 11:51:22;;;;;;;23.27;21.07;;;;;;;;;;5072298;28;20445;-77
2022/01/15 11:53:51;;;;;;;23.40;21.00;;;;;;;;;;5070685;28;20444;-77
2022/01/15 11:56:19;;;;;;;23.80;21.50;;;;;;;;;;5071889;28;20528;-76
2022/01/15 11:58:47;;;;;;;25.87;23.23;;;;;;;;;;5072088;28;20464;-77
2022/01/15 12:01:29;;;;;;;23.57;21.27;;;;;;;;;;5072081;28;20449;-77
2022/01/15 12:04:23;;;;;;;25.07;22.47;;;;;;;;;;5071318;28;20433;-76
2022/01/15 12:07:09;;;;;;;25.50;23.13;;;;;;;;;;5071245;28;20825;-75
2022/01/15 12:09:38;;;;;;;25.00;22.40;;;;;;;;;;5071163;28;20514;-76
2022/01/15 12:12:30;;;;;;;24.20;21.80;;;;;;;;;;5071599;28;20847;-75
2022/01/15 12:15:00;;;;;;;26.60;23.80;;;;;;;;;;5071279;28;20861;-76
2022/01/15 12:17:28;;;;;;;24.90;22.17;;;;;;;;;;5071779;28;20473;-76
2022/01/15 12:19:56;;;;;;;25.67;23.07;;;;;;;;;;5071458;28;20456;-77
2022/01/15 12:22:44;;;;;;;25.13;22.53;;;;;;;;;;5071619;28;20494;-77
2022/01/15 12:25:13;;;;;;;26.07;23.43;;;;;;;;;;5066756;28;20445;-77
2022/01/15 12:27:41;;;;;;;26.90;24.00;;;;;;;;;;5071554;28;20457;-76
2022/01/15 12:30:11;;;;;;;23.83;21.43;;;;;;;;;;5059318;28;20499;-77
2022/01/15 12:32:40;;;;;;;26.43;23.63;;;;;;;;;;5053626;28;20583;-76
2022/01/15 12:35:13;;;;;;;29.17;26.07;;;;;;;;;;5063263;28;20474;-76
2022/01/15 12:37:51;;;;;;;31.67;27.60;;;;;;;;;;5061395;28;20460;-77
2022/01/15 12:40:21;;;;;;;27.93;25.07;;;;;;;;;;5071797;28;20931;-79
2022/01/15 12:42:55;;;;;;;27.00;24.30;;;;;;;;;;5075400;28;20499;-77
2022/01/15 12:45:22;;;;;;;27.60;24.77;;;;;;;;;;5072045;28;20505;-78
2022/01/15 12:47:49;;;;;;;33.70;30.10;;;;;;;;;;5059537;28;20470;-76
2022/01/15 12:50:16;;;;;;;32.53;29.10;;;;;;;;;;5071339;28;20492;-77
2022/01/15 12:52:43;;;;;;;28.60;25.60;;;;;;;;;;5071471;28;20528;-76
2022/01/15 12:55:10;;;;;;;28.27;25.20;;;;;;;;;;5071085;28;20515;-76
2022/01/15 12:57:40;;;;;;;27.57;24.87;;;;;;;;;;5078364;28;20519;-77
2022/01/15 13:00:08;;;;;;;29.20;25.97;;;;;;;;;;5074855;28;20516;-77
2022/01/15 13:02:35;;;;;;;29.13;26.10;;;;;;;;;;5069367;28;20502;-79
2022/01/15 13:05:02;;;;;;;29.33;26.10;;;;;;;;;;5084215;28;20447;-77
2022/01/15 13:07:29;;;;;;;29.07;26.07;;;;;;;;;;5084457;28;20959;-79
2022/01/15 13:09:56;;;;;;;28.43;25.40;;;;;;;;;;5075299;28;20487;-76
2022/01/15 13:12:23;;;;;;;30.27;27.10;;;;;;;;;;5075089;28;20448;-78
2022/01/15 13:14:51;;;;;;;29.93;26.93;;;;;;;;;;5074955;28;20476;-77
2022/01/15 13:17:25;;;;;;;34.50;27.93;;;;;;;;;;5075258;28;20548;-77
2022/01/15 13:19:52;;;;;;;29.40;26.27;;;;;;;;;;5075140;28;20441;-76
2022/01/15 13:22:23;;;;;;;30.00;26.70;;;;;;;;;;5075180;28;20449;-76
2022/01/15 13:24:58;;;;;;;30.13;25.60;;;;;;;;;;5075272;28;20459;-77
2022/01/15 13:27:25;;;;;;;32.90;27.10;;;;;;;;;;5074878;28;20532;-78
2022/01/15 13:29:53;;;;;;;30.60;27.50;;;;;;;;;;5074851;28;20448;-76
2022/01/15 13:32:22;;;;;;;30.07;26.87;;;;;;;;;;5075246;28;20503;-78
2022/01/15 13:34:50;;;;;;;30.63;27.43;;;;;;;;;;5074410;28;20991;-77
2022/01/15 13:37:19;;;;;;;32.77;27.90;;;;;;;;;;5074902;28;20473;-78
2022/01/15 13:39:49;;;;;;;28.60;25.50;;;;;;;;;;5074925;28;20815;-77
2022/01/15 13:42:17;;;;;;;28.67;25.70;;;;;;;;;;5076155;28;20866;-76
2022/01/15 13:44:44;;;;;;;29.83;26.90;;;;;;;;;;5085097;28;20964;-77
2022/01/15 13:47:13;;;;;;;32.50;29.10;;;;;;;;;;5083954;28;20510;-76
2022/01/15 13:55:15;;;;;;;29.87;26.73;;;;;;;;;;5094552;28;20460;-76
2022/01/15 13:57:42;;;;;;;31.17;27.80;;;;;;;;;;5093025;28;20469;-75
2022/01/15 14:00:12;;;;;;;30.20;26.77;;;;;;;;;;5093056;28;20441;-75
2022/01/15 14:02:41;;;;;;;31.53;26.90;;;;;;;;;;5092288;28;20471;-75
2022/01/15 14:05:12;;;;;;;31.30;27.90;;;;;;;;;;5090170;28;20442;-78
2022/01/15 14:07:39;;;;;;;30.40;26.80;;;;;;;;;;5090197;28;20456;-77
2022/01/15 14:10:09;;;;;;;29.97;26.77;;;;;;;;;;5091915;28;20448;-75
2022/01/15 14:12:36;;;;;;;32.73;28.77;;;;;;;;;;5082008;28;20457;-76
2022/01/15 14:15:06;;;;;;;32.13;28.43;;;;;;;;;;5077433;28;20485;-76
2022/01/15 14:17:35;;;;;;;35.90;31.23;;;;;;;;;;5076017;28;20476;-74
2022/01/15 14:20:17;;;;;;;36.83;31.57;;;;;;;;;;5075840;28;20929;-75
2022/01/15 14:22:45;;;;;;;35.37;30.33;;;;;;;;;;5075063;28;20469;-78
2022/01/15 14:25:14;;;;;;;34.50;29.93;;;;;;;;;;5056354;28;20446;-77
2022/01/15 14:27:41;;;;;;;33.93;30.23;;;;;;;;;;5065263;28;20469;-75
2022/01/15 14:30:08;;;;;;;37.47;31.30;;;;;;;;;;5072038;28;20456;-75
2022/01/15 14:32:36;;;;;;;36.40;30.73;;;;;;;;;;5074082;28;20931;-77
2022/01/15 14:35:05;;;;;;;32.87;29.00;;;;;;;;;;5067389;28;20496;-76
2022/01/15 14:37:32;;;;;;;35.10;30.90;;;;;;;;;;5061411;28;20469;-76
2022/01/15 14:39:59;;;;;;;35.23;30.10;;;;;;;;;;5071485;28;20496;-75
2022/01/15 14:42:27;;;;;;;34.93;30.63;;;;;;;;;;5055615;28;20497;-75
2022/01/15 14:44:56;;;;;;;35.03;29.97;;;;;;;;;;5071782;28;20449;-78
2022/01/15 14:47:23;;;;;;;37.87;31.37;;;;;;;;;;5073744;28;20466;-77
2022/01/15 14:49:50;;;;;;;39.90;31.80;;;;;;;;;;5074024;28;20464;-78